Home > Products > Valid Products > TAF

000
FTUS45 KGGW 030520
TAFGDV
TAF
KGDV 030520Z 0306/0406 30004KT P6SM FEW200
     FM031800 VRB06KT P6SM SKC
      AMD LTD TO CLD VIS AND WIND=



000
FTUS45 KGGW 030520
TAFGGW
TAF
KGGW 030520Z 0306/0406 VRB05KT P6SM FEW150=



000
FTUS45 KGGW 030520
TAFOLF
TAF
KOLF 030520Z 0306/0406 VRB03KT P6SM FEW200=



000
FTUS45 KGGW 030520
TAFSDY
TAF
KSDY 030520Z 0306/0406 26004KT P6SM FEW200
     FM031800 36007KT P6SM FEW250
     FM040300 00000KT P6SM FEW200
      AMD LTD TO CLD VIS AND WIND=



000
FTUS45 KGGW 030520
TAFGGW
TAF
KGGW 030520Z 0306/0406 VRB05KT P6SM FEW150=



000
FTUS45 KGGW 030520
TAFOLF
TAF
KOLF 030520Z 0306/0406 VRB03KT P6SM FEW200=



000
FTUS45 KGGW 030520
TAFSDY
TAF
KSDY 030520Z 0306/0406 26004KT P6SM FEW200
     FM031800 36007KT P6SM FEW250
     FM040300 00000KT P6SM FEW200
      AMD LTD TO CLD VIS AND WIND=



000
FTUS45 KGGW 030520
TAFGDV
TAF
KGDV 030520Z 0306/0406 30004KT P6SM FEW200
     FM031800 VRB06KT P6SM SKC
      AMD LTD TO CLD VIS AND WIND=



000
FTUS45 KGGW 022329
TAFOLF
TAF
KOLF 022329Z 0300/0324 36011KT P6SM SCT250
     FM030300 VRB05KT P6SM FEW250=



000
FTUS45 KGGW 022329
TAFGGW
TAF
KGGW 022329Z 0300/0324 35010KT P6SM FEW250
     FM030300 VRB05KT P6SM FEW200=



000
FTUS45 KGGW 022329
TAFGDV
TAF
KGDV 022329Z 0300/0324 01011KT P6SM SCT200
     FM030300 VRB05KT P6SM FEW250
      AMD LTD TO CLD VIS AND WIND=



000
FTUS45 KGGW 022329
TAFOLF
TAF
KOLF 022329Z 0300/0324 36011KT P6SM SCT250
     FM030300 VRB05KT P6SM FEW250=



000
FTUS45 KGGW 022329
TAFGGW
TAF
KGGW 022329Z 0300/0324 35010KT P6SM FEW250
     FM030300 VRB05KT P6SM FEW200=



000
FTUS45 KGGW 022329
TAFGDV
TAF
KGDV 022329Z 0300/0324 01011KT P6SM SCT200
     FM030300 VRB05KT P6SM FEW250
      AMD LTD TO CLD VIS AND WIND=



000
FTUS45 KGGW 022329
TAFSDY
TAF
KSDY 022329Z 0300/0324 01011KT P6SM FEW250
     FM030300 VRB05KT P6SM FEW250
      AMD LTD TO CLD VIS AND WIND=



000
FTUS45 KGGW 022329
TAFSDY
TAF
KSDY 022329Z 0300/0324 01011KT P6SM FEW250
     FM030300 VRB05KT P6SM FEW250
      AMD LTD TO CLD VIS AND WIND=



000
FTUS45 KGGW 022109 AAA
TAFSDY
TAF AMD
KSDY 022109Z 0221/0318 01013KT P6SM SCT250
     FM030100 01008KT P6SM FEW250
     FM030300 VRB04KT P6SM FEW250
      AMD LTD TO CLD VIS AND WIND=



000
FTUS45 KGGW 022003 AAA
TAFGDV
TAF AMD
KGDV 022003Z 0220/0318 35016KT P6SM SCT250
     FM030200 36008KT P6SM SCT250
     FM030400 VRB04KT P6SM FEW250
      AMD LTD TO CLD VIS AND WIND=



000
FTUS45 KGGW 021720
TAFGDV
TAF
KGDV 021720Z 0218/0318 32019KT P6SM SCT200
     FM022100 35016KT P6SM SCT250
     FM030200 36008KT P6SM SCT250
     FM030400 VRB04KT P6SM FEW250
      AMD LTD TO CLD VIS AND WIND=



000
FTUS45 KGGW 021720
TAFOLF
TAF
KOLF 021720Z 0218/0318 32015KT P6SM SCT250
     FM022200 35013KT P6SM SCT250
     FM030100 01009KT P6SM FEW250
     FM030300 VRB04KT P6SM FEW250=



000
FTUS45 KGGW 021720
TAFGGW
TAF
KGGW 021720Z 0218/0318 32012KT P6SM SCT250
     FM030100 35010KT P6SM FEW250
     FM030400 VRB05KT P6SM FEW250=



000
FTUS45 KGGW 021720
TAFOLF
TAF
KOLF 021720Z 0218/0318 32015KT P6SM SCT250
     FM022200 35013KT P6SM SCT250
     FM030100 01009KT P6SM FEW250
     FM030300 VRB04KT P6SM FEW250=



000
FTUS45 KGGW 021720
TAFSDY
TAF
KSDY 021720Z 0218/0318 32017KT P6SM SCT200
     FM022100 36013KT P6SM SCT250
     FM030100 01008KT P6SM FEW250
     FM030300 VRB04KT P6SM FEW250
      AMD LTD TO CLD VIS AND WIND=



000
FTUS45 KGGW 021720
TAFGDV
TAF
KGDV 021720Z 0218/0318 32019KT P6SM SCT200
     FM022100 35016KT P6SM SCT250
     FM030200 36008KT P6SM SCT250
     FM030400 VRB04KT P6SM FEW250
      AMD LTD TO CLD VIS AND WIND=



000
FTUS45 KGGW 021720
TAFGGW
TAF
KGGW 021720Z 0218/0318 32012KT P6SM SCT250
     FM030100 35010KT P6SM FEW250
     FM030400 VRB05KT P6SM FEW250=



000
FTUS45 KGGW 021720
TAFSDY
TAF
KSDY 021720Z 0218/0318 32017KT P6SM SCT200
     FM022100 36013KT P6SM SCT250
     FM030100 01008KT P6SM FEW250
     FM030300 VRB04KT P6SM FEW250
      AMD LTD TO CLD VIS AND WIND=



000
FTUS45 KGGW 021429 AAA
TAFGDV
TAF AMD
KGDV 021429Z 0214/0312 31015KT P6SM FEW150
     FM030200 36008KT P6SM SCT250
      AMD LTD TO CLD VIS AND WIND=



000
FTUS45 KGGW 021408 AAA
TAFSDY
TAF AMD
KSDY 021408Z 0214/0312 29018KT P6SM BKN130
     FM021800 33013KT P6SM SCT250
     FM030100 01008KT P6SM FEW250
      AMD LTD TO CLD VIS AND WIND=



000
FTUS45 KGGW 021127
TAFGDV
TAF
KGDV 021127Z 0212/0312 27008KT P6SM BKN120
     FM021500 33015KT P6SM SCT150
     FM030200 36008KT P6SM SCT250
      AMD LTD TO CLD VIS AND WIND=



000
FTUS45 KGGW 021127
TAFOLF
TAF
KOLF 021127Z 0212/0312 27006KT P6SM SCT100
     FM021600 30010KT P6SM SCT130
     FM021900 33014KT P6SM SCT250
     FM030200 01006KT P6SM FEW250=



000
FTUS45 KGGW 021127
TAFGGW
TAF
KGGW 021127Z 0212/0312 30007KT P6SM SCT200
     FM021700 31011KT P6SM SCT250
     FM030300 01007KT P6SM FEW250=



000
FTUS45 KGGW 021127
TAFSDY
TAF
KSDY 021127Z 0212/0312 29013KT P6SM BKN130
     FM021800 33013KT P6SM SCT250
     FM030100 01008KT P6SM FEW250
      AMD LTD TO CLD VIS AND WIND=



000
FTUS45 KGGW 020520
TAFOLF
TAF
KOLF 020520Z 0206/0306 28006KT P6SM SCT120
     FM021500 29010KT P6SM BKN150
     FM021800 33014KT P6SM SCT150
     FM030000 01012KT P6SM FEW150
     FM030300 VRB05KT P6SM FEW200=



000
FTUS45 KGGW 020520
TAFGGW
TAF
KGGW 020520Z 0206/0306 26006KT P6SM SCT200
     FM021200 31007KT P6SM SCT150
     FM021800 32012KT P6SM FEW150
     FM030100 35010KT P6SM SCT150=



000
FTUS45 KGGW 020520
TAFSDY
TAF
KSDY 020520Z 0206/0306 26007KT P6SM SCT120
     FM021200 28010KT P6SM SCT140
     FM021600 32013KT P6SM SCT140
     FM030300 34004KT P6SM FEW250
      AMD LTD TO CLD VIS AND WIND=



000
FTUS45 KGGW 020520
TAFSDY
TAF
KSDY 020520Z 0206/0306 26007KT P6SM SCT120
     FM021200 28010KT P6SM SCT140
     FM021600 32013KT P6SM SCT140
     FM030300 34004KT P6SM FEW250
      AMD LTD TO CLD VIS AND WIND=



000
FTUS45 KGGW 020520
TAFOLF
TAF
KOLF 020520Z 0206/0306 28006KT P6SM SCT120
     FM021500 29010KT P6SM BKN150
     FM021800 33014KT P6SM SCT150
     FM030000 01012KT P6SM FEW150
     FM030300 VRB05KT P6SM FEW200=



000
FTUS45 KGGW 020520
TAFGGW
TAF
KGGW 020520Z 0206/0306 26006KT P6SM SCT200
     FM021200 31007KT P6SM SCT150
     FM021800 32012KT P6SM FEW150
     FM030100 35010KT P6SM SCT150=



000
FTUS45 KGGW 020520
TAFGDV
TAF
KGDV 020520Z 0206/0306 28007KT P6SM SCT200
     FM021500 29012KT P6SM SCT140
     FM021800 33015G22KT P6SM SCT150
     FM030300 36004KT P6SM FEW200
      AMD LTD TO CLD VIS AND WIND=



000
FTUS45 KGGW 020520
TAFGDV
TAF
KGDV 020520Z 0206/0306 28007KT P6SM SCT200
     FM021500 29012KT P6SM SCT140
     FM021800 33015G22KT P6SM SCT150
     FM030300 36004KT P6SM FEW200
      AMD LTD TO CLD VIS AND WIND=



000
FTUS45 KGGW 012320
TAFGGW
TAF
KGGW 012320Z 0200/0224 28007KT P6SM FEW250
     FM020900 28007KT P6SM SCT110
     FM021200 31008KT P6SM SCT120
     FM021800 32012KT P6SM FEW140=



000
FTUS45 KGGW 012320
TAFSDY
TAF
KSDY 012320Z 0200/0224 32006KT P6SM FEW200
     FM020500 26006KT P6SM SCT150
     FM021200 29009KT P6SM SCT080
     FM021800 34012KT P6SM SCT150
      AMD LTD TO CLD VIS AND WIND=



000
FTUS45 KGGW 012320
TAFGDV
TAF
KGDV 012320Z 0200/0224 30005KT P6SM FEW130
     FM020300 27006KT P6SM FEW150
     FM021600 32014KT P6SM SCT110
     FM022100 35013KT P6SM SCT110
      AMD LTD TO CLD VIS AND WIND=



000
FTUS45 KGGW 012320
TAFOLF
TAF
KOLF 012320Z 0200/0224 24007KT P6SM FEW200
     FM020600 28006KT P6SM SCT150
     FM021800 34013KT P6SM SCT120=



000
FTUS45 KGGW 011720
TAFGGW
TAF
KGGW 011720Z 0118/0218 27006KT P6SM FEW250
     FM021600 32012KT P6SM SCT250=



000
FTUS45 KGGW 011720
TAFSDY
TAF
KSDY 011720Z 0118/0218 VRB06KT P6SM FEW250
     FM021500 30010KT P6SM SCT150
      AMD LTD TO CLD VIS AND WIND=



000
FTUS45 KGGW 011720
TAFGDV
TAF
KGDV 011720Z 0118/0218 VRB06KT P6SM FEW200
     FM021500 30013KT P6SM SCT250
      AMD LTD TO CLD VIS AND WIND=



000
FTUS45 KGGW 011720
TAFOLF
TAF
KOLF 011720Z 0118/0218 27006KT P6SM FEW250
     FM021700 33012KT P6SM SCT250=



000
FTUS45 KGGW 011120
TAFOLF
TAF
KOLF 011120Z 0112/0212 00000KT P6SM SKC
     FM011800 25006KT P6SM FEW250=



000
FTUS45 KGGW 011120
TAFSDY
TAF
KSDY 011120Z 0112/0212 VRB03KT P6SM SKC
     FM020900 27007KT P6SM SCT110
      AMD LTD TO CLD VIS AND WIND=



000
FTUS45 KGGW 011120
TAFGDV
TAF
KGDV 011120Z 0112/0212 30005KT P6SM SKC
      AMD LTD TO CLD VIS AND WIND=



000
FTUS45 KGGW 011120
TAFSDY
TAF
KSDY 011120Z 0112/0212 VRB03KT P6SM SKC
     FM020900 27007KT P6SM SCT110
      AMD LTD TO CLD VIS AND WIND=



000
FTUS45 KGGW 011120
TAFOLF
TAF
KOLF 011120Z 0112/0212 00000KT P6SM SKC
     FM011800 25006KT P6SM FEW250=



000
FTUS45 KGGW 011120
TAFGGW
TAF
KGGW 011120Z 0112/0212 VRB06KT P6SM FEW200=



000
FTUS45 KGGW 011120
TAFGDV
TAF
KGDV 011120Z 0112/0212 30005KT P6SM SKC
      AMD LTD TO CLD VIS AND WIND=



000
FTUS45 KGGW 011120
TAFGGW
TAF
KGGW 011120Z 0112/0212 VRB06KT P6SM FEW200=



000
FTUS45 KGGW 010520
TAFSDY
TAF
KSDY 010520Z 0106/0206 VRB05KT P6SM SKC
      AMD LTD TO CLD VIS AND WIND=



000
FTUS45 KGGW 010520
TAFGDV
TAF
KGDV 010520Z 0106/0206 VRB05KT P6SM SKC
      AMD LTD TO CLD VIS AND WIND=



000
FTUS45 KGGW 010520
TAFGGW
TAF
KGGW 010520Z 0106/0206 10007KT P6SM FEW200
     FM011500 18005KT P6SM FEW250
     FM011800 24005KT P6SM FEW250=



000
FTUS45 KGGW 010520
TAFOLF
TAF
KOLF 010520Z 0106/0206 VRB05KT P6SM FEW200=



000
FTUS45 KGGW 302336
TAFSDY
TAF
KSDY 302336Z 0100/0124 08011KT P6SM FEW140
     FM010300 03007KT P6SM FEW150
     FM010900 VRB03KT P6SM SKC
      AMD LTD TO CLD VIS AND WIND=



000
FTUS45 KGGW 302336
TAFOLF
TAF
KOLF 302336Z 0100/0124 09013KT P6SM FEW150
     FM010200 08007KT P6SM FEW150
     FM011100 VRB03KT P6SM SKC=



000
FTUS45 KGGW 302336
TAFGGW
TAF
KGGW 302336Z 0100/0124 10008KT P6SM FEW200
     FM011500 19005KT P6SM FEW250=



000
FTUS45 KGGW 302336
TAFGDV
TAF
KGDV 302336Z 0100/0124 05011KT P6SM FEW140
     FM010300 06008KT P6SM FEW200
     FM010700 VRB06KT P6SM SKC
     FM011800 35006KT P6SM FEW200
      AMD LTD TO CLD VIS AND WIND=



000
FTUS45 KGGW 301720
TAFGDV
TAF
KGDV 301720Z 3018/0118 07014KT P6SM SCT050 SCT130
     FM010300 VRB05KT P6SM FEW200
      AMD LTD TO CLD VIS AND WIND=



000
FTUS45 KGGW 301720
TAFSDY
TAF
KSDY 301720Z 3018/0118 07013KT P6SM FEW060 SCT200
     FM010300 VRB04KT P6SM SKC
      AMD LTD TO CLD VIS AND WIND=



000
FTUS45 KGGW 301720
TAFGGW
TAF
KGGW 301720Z 3018/0118 10014KT P6SM SCT060 SCT200
     FM010200 10009KT P6SM FEW200=



000
FTUS45 KGGW 301720
TAFOLF
TAF
KOLF 301720Z 3018/0118 09013KT P6SM SCT060 SCT200
     FM010300 08005KT P6SM FEW250=



000
FTUS45 KGGW 301720
TAFGGW
TAF
KGGW 301720Z 3018/0118 10014KT P6SM SCT060 SCT200
     FM010200 10009KT P6SM FEW200=



000
FTUS45 KGGW 301720
TAFGDV
TAF
KGDV 301720Z 3018/0118 07014KT P6SM SCT050 SCT130
     FM010300 VRB05KT P6SM FEW200
      AMD LTD TO CLD VIS AND WIND=



000
FTUS45 KGGW 301720
TAFSDY
TAF
KSDY 301720Z 3018/0118 07013KT P6SM FEW060 SCT200
     FM010300 VRB04KT P6SM SKC
      AMD LTD TO CLD VIS AND WIND=



000
FTUS45 KGGW 301720
TAFOLF
TAF
KOLF 301720Z 3018/0118 09013KT P6SM SCT060 SCT200
     FM010300 08005KT P6SM FEW250=



000
FTUS45 KGGW 301403 AAA
TAFGGW
TAF AMD
KGGW 301403Z 3014/0112 10014KT P6SM BKN120
     FM010200 10009KT P6SM FEW250=



000
FTUS45 KGGW 301128
TAFSDY
TAF
KSDY 301128Z 3012/0112 03006KT P6SM SCT150
     FM301500 06009KT P6SM SCT250
     FM010300 03006KT P6SM FEW250
      AMD LTD TO CLD VIS AND WIND=



000
FTUS45 KGGW 301128
TAFOLF
TAF
KOLF 301128Z 3012/0112 07006KT P6SM SCT130
     FM301500 08011KT P6SM SCT250
     FM010200 08007KT P6SM FEW250=



000
FTUS45 KGGW 301128
TAFGGW
TAF
KGGW 301128Z 3012/0112 08010KT P6SM BKN100
     FM301800 10014KT P6SM SCT150
     FM010200 10009KT P6SM FEW250=



000
FTUS45 KGGW 301128
TAFGDV
TAF
KGDV 301128Z 3012/0112 03008KT P6SM BKN070
     FM301800 06010KT P6SM SCT120
     FM010600 04005KT P6SM FEW250
      AMD LTD TO CLD VIS AND WIND=



000
FTUS45 KGGW 301128
TAFGGW
TAF
KGGW 301128Z 3012/0112 08010KT P6SM BKN100
     FM301800 10014KT P6SM SCT150
     FM010200 10009KT P6SM FEW250=



000
FTUS45 KGGW 301128
TAFGDV
TAF
KGDV 301128Z 3012/0112 03008KT P6SM BKN070
     FM301800 06010KT P6SM SCT120
     FM010600 04005KT P6SM FEW250
      AMD LTD TO CLD VIS AND WIND=



000
FTUS45 KGGW 301128
TAFOLF
TAF
KOLF 301128Z 3012/0112 07006KT P6SM SCT130
     FM301500 08011KT P6SM SCT250
     FM010200 08007KT P6SM FEW250=



000
FTUS45 KGGW 301128
TAFSDY
TAF
KSDY 301128Z 3012/0112 03006KT P6SM SCT150
     FM301500 06009KT P6SM SCT250
     FM010300 03006KT P6SM FEW250
      AMD LTD TO CLD VIS AND WIND=



    US Dept of Commerce
    National Oceanic and Atmospheric Administration
    National Weather Service
    1325 East West Highway
    Silver Spring, MD 20910
    Page Author: NWS Internet Services Team
Disclaimer
Information Quality
Credits
Glossary
Privacy Policy
Freedom of Information Act (FOIA)
About Us
Career Opportunities